createdAt,value
2022-10-01T00:02:14.706Z,69.48
2022-10-01T00:04:47.325Z,69.99
2022-10-01T00:07:16.196Z,70.10
2022-10-01T00:09:49.464Z,70.70
2022-10-01T00:12:22.109Z,70.01
2022-10-01T00:15:05.530Z,69.23
2022-10-01T00:17:45.893Z,68.48
2022-10-01T00:20:32.636Z,67.98
2022-10-01T00:23:31.916Z,68.43
2022-10-01T00:26:14.344Z,68.53
2022-10-01T00:28:48.279Z,69.06
2022-10-01T00:31:35.125Z,69.57
2022-10-01T00:34:09.709Z,69.26
2022-10-01T00:36:37.677Z,70.51
2022-10-01T00:39:12.124Z,70.55
2022-10-01T00:41:45.490Z,70.95
2022-10-01T00:44:42.278Z,71.29
2022-10-01T00:47:57.132Z,70.89
2022-10-01T00:50:33.465Z,70.63
2022-10-01T00:53:21.638Z,70.32
2022-10-01T00:55:57.173Z,70.77
2022-10-01T00:58:31.200Z,70.48
2022-10-01T01:01:02.435Z,70.01
2022-10-01T01:03:39.872Z,69.82
2022-10-01T01:06:15.269Z,69.59
2022-10-01T01:08:48.279Z,69.50
2022-10-01T01:11:37.580Z,69.89
2022-10-01T01:14:40.848Z,70.00
2022-10-01T01:17:34.102Z,69.49
2022-10-01T01:20:21.899Z,69.16
2022-10-01T01:23:03.279Z,67.91
2022-10-01T01:26:05.533Z,68.47
2022-10-01T01:29:00.794Z,68.42
2022-10-01T01:31:49.300Z,68.78
2022-10-01T01:34:24.471Z,68.94
2022-10-01T01:37:01.700Z,69.15
2022-10-01T01:39:35.394Z,69.82
2022-10-01T01:42:16.805Z,70.29
2022-10-01T01:44:49.111Z,70.03
2022-10-01T01:47:26.280Z,70.49
2022-10-01T01:50:01.179Z,70.83
2022-10-01T01:52:33.229Z,71.74
2022-10-01T01:55:10.311Z,72.36
2022-10-01T01:57:47.900Z,73.11
2022-10-01T02:00:25.193Z,73.99
2022-10-01T02:03:07.459Z,73.50
2022-10-01T02:06:18.442Z,72.97
2022-10-01T02:09:14.073Z,70.32
2022-10-01T02:12:19.373Z,70.48
2022-10-01T02:14:54.967Z,71.39
2022-10-01T02:17:34.748Z,72.51
2022-10-01T02:20:56.746Z,72.23
2022-10-01T02:23:31.677Z,72.42
2022-10-01T02:26:09.712Z,71.30
2022-10-01T02:28:43.698Z,69.70
2022-10-01T02:31:48.178Z,68.69
2022-10-01T02:34:21.195Z,67.81
2022-10-01T02:36:50.044Z,66.53
2022-10-01T02:39:27.066Z,66.09
2022-10-01T02:42:02.248Z,65.03
2022-10-01T02:44:40.283Z,64.63
2022-10-01T02:47:49.152Z,64.00
2022-10-01T02:50:24.153Z,63.64
2022-10-01T02:53:24.012Z,63.33
2022-10-01T02:55:54.885Z,62.75
2022-10-01T02:58:29.221Z,61.95
2022-10-01T03:00:56.554Z,62.04
2022-10-01T03:03:27.475Z,61.57
2022-10-01T03:05:56.998Z,61.10
2022-10-01T03:08:28.942Z,60.68
2022-10-01T03:11:02.040Z,60.24
2022-10-01T03:13:32.963Z,60.72
2022-10-01T03:16:01.926Z,61.10
2022-10-01T03:18:44.380Z,60.89
2022-10-01T03:21:20.261Z,61.23
2022-10-01T03:23:53.419Z,61.68
2022-10-01T03:26:24.677Z,61.34
2022-10-01T03:28:58.266Z,60.93
2022-10-01T03:31:26.563Z,60.94
2022-10-01T03:33:59.919Z,61.24
2022-10-01T03:36:34.863Z,60.89
2022-10-01T03:39:04.487Z,61.29
2022-10-01T03:41:35.613Z,60.80
2022-10-01T03:44:24.879Z,61.18
2022-10-01T03:46:58.684Z,62.54
2022-10-01T03:49:30.544Z,63.41
2022-10-01T03:52:09.180Z,63.02
2022-10-01T03:55:06.952Z,63.84
2022-10-01T03:57:42.027Z,63.43
2022-10-01T04:00:11.539Z,65.60
2022-10-01T04:02:44.863Z,65.42
2022-10-01T04:05:15.250Z,65.92
2022-10-01T04:07:47.379Z,66.59
2022-10-01T04:10:23.725Z,67.23
2022-10-01T04:13:17.187Z,68.63
2022-10-01T04:15:52.010Z,69.85
2022-10-01T04:18:34.249Z,70.46
2022-10-01T04:21:14.505Z,70.67
2022-10-01T04:23:49.295Z,70.39
2022-10-01T04:26:21.061Z,72.10
2022-10-01T04:28:56.401Z,72.82
2022-10-01T04:31:35.038Z,73.52
2022-10-01T04:34:12.036Z,73.86
2022-10-01T04:36:43.933Z,74.83
2022-10-01T04:39:41.242Z,75.50
2022-10-01T04:42:14.904Z,75.85
2022-10-01T04:44:49.076Z,75.12
2022-10-01T04:47:27.232Z,75.44
2022-10-01T04:50:16.647Z,75.75
2022-10-01T04:52:58.265Z,75.96
2022-10-01T04:55:32.038Z,76.26
2022-10-01T04:57:59.691Z,77.99
2022-10-01T05:00:38.949Z,78.55
2022-10-01T05:03:13.776Z,78.67
2022-10-01T05:05:47.471Z,78.31
2022-10-01T05:08:25.835Z,78.61
2022-10-01T05:11:05.026Z,79.22
2022-10-01T05:13:35.646Z,78.54
2022-10-01T05:16:28.279Z,78.52
2022-10-01T05:18:59.043Z,77.44
2022-10-01T05:21:28.961Z,77.60
2022-10-01T05:23:59.729Z,75.59
2022-10-01T05:26:33.438Z,74.76
2022-10-01T05:29:06.455Z,73.46
2022-10-01T05:35:16.302Z,67.63
2022-10-01T05:37:54.923Z,68.34
2022-10-01T05:40:32.196Z,68.90
2022-10-01T05:48:21.043Z,66.08
2022-10-01T06:01:54.920Z,65.57
2022-10-01T06:05:20.480Z,67.48
2022-10-01T06:08:21.426Z,68.50
2022-10-01T06:10:53.455Z,69.34
2022-10-01T06:13:53.427Z,70.31
2022-10-01T06:16:22.429Z,70.76
2022-10-01T06:18:57.495Z,70.88
2022-10-01T06:21:29.097Z,71.02
2022-10-01T06:24:01.659Z,71.55
2022-10-01T06:26:33.547Z,72.21
2022-10-01T06:29:05.258Z,72.93
2022-10-01T06:31:44.157Z,73.06
2022-10-01T06:34:19.132Z,72.29
2022-10-01T06:36:46.983Z,72.82
2022-10-01T06:39:18.377Z,72.42
2022-10-01T06:41:48.599Z,73.19
2022-10-01T06:44:16.259Z,73.62
2022-10-01T06:46:43.611Z,70.75
2022-10-01T06:49:10.970Z,70.59
2022-10-01T06:51:57.030Z,70.54
2022-10-01T06:54:27.408Z,71.16
2022-10-01T06:56:55.332Z,71.53
2022-10-01T06:59:24.194Z,71.10
2022-10-01T07:01:56.877Z,71.52
2022-10-01T07:04:29.664Z,70.54
2022-10-01T07:07:26.014Z,71.51
2022-10-01T07:10:13.441Z,71.52
2022-10-01T07:12:44.526Z,71.78
2022-10-01T07:15:13.013Z,71.96
2022-10-01T07:17:51.043Z,75.63
2022-10-01T07:20:25.825Z,72.65
2022-10-01T07:23:00.923Z,72.42
2022-10-01T07:25:29.743Z,71.61
2022-10-01T07:28:04.652Z,71.95
2022-10-01T07:30:35.344Z,69.63
2022-10-01T07:33:10.433Z,69.09
2022-10-01T07:35:41.552Z,68.27
2022-10-01T07:38:35.364Z,66.46
2022-10-01T07:41:06.534Z,66.57
2022-10-01T07:43:36.359Z,69.02
2022-10-01T07:46:10.680Z,65.13
2022-10-01T07:48:39.620Z,65.55
2022-10-01T07:51:08.421Z,66.40
2022-10-01T07:53:37.210Z,65.96
2022-10-01T07:56:32.758Z,66.43
2022-10-01T07:59:04.680Z,66.49
2022-10-01T08:01:35.717Z,66.63
2022-10-01T08:04:27.221Z,66.22
2022-10-01T08:07:21.367Z,67.17
2022-10-01T08:09:50.624Z,66.90
2022-10-01T08:12:19.779Z,67.96
2022-10-01T08:14:50.331Z,66.64
2022-10-01T08:17:20.557Z,68.70
2022-10-01T08:19:48.156Z,68.75
2022-10-01T08:22:24.883Z,67.12
2022-10-01T08:24:53.436Z,67.79
2022-10-01T08:27:21.266Z,67.92
2022-10-01T08:29:49.266Z,68.05
2022-10-01T08:32:17.566Z,66.64
2022-10-01T08:34:50.450Z,67.46
2022-10-01T08:37:27.317Z,67.20
2022-10-01T08:39:56.062Z,66.30
2022-10-01T08:42:37.981Z,66.89
2022-10-01T08:45:16.372Z,67.44
2022-10-01T08:47:58.576Z,67.80
2022-10-01T08:50:37.146Z,68.18
2022-10-01T08:53:14.003Z,69.34
2022-10-01T08:55:42.275Z,68.72
2022-10-01T08:58:15.009Z,68.79
2022-10-01T09:00:46.488Z,68.60
2022-10-01T09:03:15.528Z,68.28
2022-10-01T09:06:16.869Z,68.21
2022-10-01T09:09:21.657Z,69.66
2022-10-01T09:12:09.373Z,70.06
2022-10-01T09:15:30.597Z,69.52
2022-10-01T09:18:25.487Z,70.23
2022-10-01T09:20:57.723Z,70.49
2022-10-01T09:23:33.454Z,70.72
2022-10-01T09:26:02.632Z,69.90
2022-10-01T09:28:32.313Z,70.37
2022-10-01T09:31:18.501Z,71.02
2022-10-01T09:34:09.349Z,69.48
2022-10-01T09:36:56.843Z,68.80
2022-10-01T09:39:34.971Z,69.04
2022-10-01T09:42:02.552Z,68.28
2022-10-01T09:44:32.583Z,69.05
2022-10-01T09:47:01.224Z,69.58
2022-10-01T09:49:40.135Z,69.87
2022-10-01T09:52:27.255Z,69.63
2022-10-01T09:55:06.638Z,69.15
2022-10-01T09:57:39.273Z,70.17
2022-10-01T10:00:18.132Z,68.68
2022-10-01T10:02:50.213Z,69.58
2022-10-01T10:05:20.770Z,69.72
2022-10-01T10:08:10.443Z,70.82
2022-10-01T10:10:40.258Z,71.22
2022-10-01T10:13:14.823Z,71.50
2022-10-01T10:15:52.532Z,71.29
2022-10-01T10:18:31.770Z,70.16
2022-10-01T10:21:03.864Z,69.66
2022-10-01T10:23:31.799Z,70.03
2022-10-01T10:26:05.139Z,70.39
2022-10-01T10:28:44.856Z,70.13
2022-10-01T10:31:24.799Z,69.42
2022-10-01T10:34:08.433Z,69.34
2022-10-01T10:36:38.001Z,69.38
2022-10-01T10:39:32.660Z,67.90
2022-10-01T10:42:01.353Z,67.62
2022-10-01T10:44:36.295Z,67.03
2022-10-01T10:47:11.846Z,67.10
2022-10-01T10:49:57.786Z,67.36
2022-10-01T10:52:36.950Z,67.32
2022-10-01T10:55:29.593Z,67.20
2022-10-01T10:58:11.546Z,66.18
2022-10-01T11:00:50.171Z,65.18
2022-10-01T11:03:22.754Z,64.62
2022-10-01T11:05:53.417Z,64.68
2022-10-01T11:08:26.172Z,64.06
2022-10-01T11:11:14.934Z,65.05
2022-10-01T11:13:45.423Z,64.83
2022-10-01T11:16:48.620Z,65.43
2022-10-01T11:19:58.183Z,64.89
2022-10-01T11:22:48.078Z,64.33
2022-10-01T11:25:58.561Z,63.99
2022-10-01T11:28:46.273Z,63.04
2022-10-01T11:31:53.089Z,63.61
2022-10-01T11:34:57.334Z,63.50
2022-10-01T11:38:10.303Z,63.29
2022-10-01T11:40:43.954Z,63.83
2022-10-01T11:43:27.853Z,63.48
2022-10-01T11:46:07.269Z,63.60
2022-10-01T11:49:04.331Z,63.41
2022-10-01T11:51:58.837Z,63.43
2022-10-01T11:54:33.033Z,63.82
2022-10-01T11:57:23.766Z,62.03
2022-10-01T12:00:01.026Z,63.48
2022-10-01T12:02:38.965Z,62.72
2022-10-01T12:05:15.389Z,62.73
2022-10-01T12:07:54.117Z,63.40
2022-10-01T12:11:02.086Z,63.86
2022-10-01T12:13:38.769Z,64.70
2022-10-01T12:16:38.566Z,65.41
2022-10-01T12:19:12.941Z,65.55
2022-10-01T12:21:52.214Z,65.68
2022-10-01T12:24:42.615Z,66.28
2022-10-01T12:27:35.726Z,66.98
2022-10-01T12:30:21.640Z,65.19
2022-10-01T12:33:13.503Z,66.39
2022-10-01T12:36:05.636Z,67.53
2022-10-01T12:39:30.306Z,67.93
2022-10-01T12:42:50.185Z,68.02
2022-10-01T12:45:52.140Z,66.75
2022-10-01T13:43:55.868Z,61.90
2022-10-01T15:09:21.529Z,99.57
2022-10-01T15:16:44.778Z,100.00
2022-10-01T15:28:39.298Z,100.00
2022-10-01T15:31:18.497Z,100.00
2022-10-01T15:33:58.527Z,100.00
2022-10-01T15:40:36.705Z,100.00
2022-10-01T15:43:35.509Z,100.00
2022-10-01T15:56:32.219Z,100.00
2022-10-01T16:04:05.349Z,100.00
2022-10-01T16:06:47.949Z,100.00
2022-10-01T16:09:22.778Z,100.00
2022-10-01T16:12:03.940Z,100.00
2022-10-01T16:14:56.534Z,100.00
2022-10-01T16:17:33.975Z,100.00
2022-10-01T16:20:26.024Z,100.00
2022-10-01T16:23:34.087Z,100.00
2022-10-01T16:26:05.886Z,100.00
2022-10-01T16:28:38.258Z,100.00
2022-10-01T16:31:07.186Z,100.00
2022-10-01T16:33:35.194Z,100.00
2022-10-01T16:36:21.453Z,100.00
2022-10-01T16:38:55.033Z,100.00
2022-10-01T16:41:27.370Z,100.00
2022-10-01T16:44:03.384Z,100.00
2022-10-01T16:46:34.223Z,100.00
2022-10-01T16:49:11.791Z,100.00
2022-10-01T16:51:41.258Z,100.00
2022-10-01T16:54:40.626Z,100.00
2022-10-01T16:57:09.588Z,100.00
2022-10-01T16:59:41.893Z,100.00
2022-10-01T17:02:14.006Z,100.00
2022-10-01T17:04:49.232Z,100.00
2022-10-01T17:07:26.993Z,100.00
2022-10-01T17:09:58.543Z,100.00
2022-10-01T17:12:27.259Z,100.00
2022-10-01T17:14:57.073Z,100.00
2022-10-01T17:17:35.539Z,100.00
2022-10-01T17:20:09.808Z,100.00
2022-10-01T17:22:43.088Z,100.00
2022-10-01T17:25:23.180Z,100.00
2022-10-01T17:27:53.166Z,100.00
2022-10-01T17:30:24.929Z,100.00
2022-10-01T17:33:01.755Z,100.00
2022-10-01T17:35:36.534Z,100.00
2022-10-01T17:38:06.693Z,100.00
2022-10-01T17:41:02.678Z,100.00
2022-10-01T17:44:36.332Z,100.00
2022-10-01T17:48:31.303Z,100.00
2022-10-01T17:51:34.021Z,100.00
2022-10-01T17:59:20.751Z,100.00
2022-10-01T18:02:41.577Z,100.00
2022-10-01T18:06:05.531Z,100.00
2022-10-01T18:09:35.651Z,100.00
2022-10-01T18:12:49.861Z,100.00
2022-10-01T18:16:18.305Z,100.00
2022-10-01T18:26:05.365Z,100.00
2022-10-01T18:32:40.263Z,100.00
2022-10-01T18:47:32.493Z,100.00
2022-10-01T19:00:09.222Z,100.00
2022-10-01T19:03:21.938Z,100.00
2022-10-01T19:06:09.194Z,100.00
2022-10-01T19:08:40.686Z,100.00
2022-10-01T19:11:25.046Z,100.00
2022-10-01T19:14:30.946Z,100.00
2022-10-01T19:17:17.420Z,100.00
2022-10-01T19:20:26.648Z,100.00
2022-10-01T19:23:16.351Z,100.00
2022-10-01T19:25:58.950Z,100.00
2022-10-01T19:28:46.644Z,100.00
2022-10-01T19:31:36.843Z,100.00
2022-10-01T19:34:13.424Z,100.00
2022-10-01T19:36:47.443Z,100.00
2022-10-01T19:39:23.523Z,100.00
2022-10-01T19:42:17.765Z,100.00
2022-10-01T19:44:54.695Z,100.00
2022-10-01T19:47:34.307Z,100.00
2022-10-01T19:50:15.729Z,100.00
2022-10-01T19:52:48.420Z,100.00
2022-10-01T19:55:23.649Z,100.00
2022-10-01T19:57:53.110Z,100.00
2022-10-01T20:00:24.242Z,100.00
2022-10-01T20:03:27.159Z,100.00
2022-10-01T20:06:04.149Z,100.00
2022-10-01T20:08:42.160Z,100.00
2022-10-01T20:11:24.203Z,100.00
2022-10-01T20:14:10.594Z,100.00
2022-10-01T20:16:47.558Z,100.00
2022-10-01T20:19:53.789Z,100.00
2022-10-01T20:22:30.483Z,100.00
2022-10-01T20:25:04.225Z,100.00
2022-10-01T20:28:03.377Z,100.00
2022-10-01T20:30:38.166Z,100.00
2022-10-01T20:33:20.323Z,100.00
2022-10-01T20:36:11.922Z,100.00
2022-10-01T20:39:05.800Z,100.00
2022-10-01T20:41:56.473Z,100.00
2022-10-01T20:44:39.520Z,100.00
2022-10-01T20:47:21.428Z,100.00
2022-10-01T20:50:12.480Z,100.00
2022-10-01T20:53:09.227Z,100.00
2022-10-01T20:55:46.366Z,100.00
2022-10-01T20:58:19.479Z,100.00
2022-10-01T21:00:49.660Z,100.00
2022-10-01T21:03:23.578Z,100.00
2022-10-01T21:06:30.926Z,100.00
2022-10-01T21:09:03.457Z,100.00
2022-10-01T21:11:31.108Z,100.00
2022-10-01T21:14:20.991Z,100.00
2022-10-01T21:17:13.708Z,100.00
2022-10-01T21:20:12.793Z,100.00
2022-10-01T21:22:49.773Z,100.00
2022-10-01T21:25:35.027Z,100.00
2022-10-01T21:28:56.989Z,100.00
2022-10-01T21:31:34.549Z,100.00
2022-10-01T21:34:03.616Z,100.00
2022-10-01T21:36:38.710Z,100.00
2022-10-01T21:39:24.054Z,100.00
2022-10-01T21:42:06.703Z,100.00
2022-10-01T21:44:52.595Z,100.00
2022-10-01T21:47:23.466Z,100.00
2022-10-01T21:50:26.825Z,100.00
2022-10-01T21:53:13.051Z,100.00
2022-10-01T21:55:59.431Z,100.00
2022-10-01T21:59:07.170Z,100.00
2022-10-01T22:01:56.977Z,100.00
2022-10-01T22:04:40.371Z,100.00
2022-10-01T22:07:54.237Z,100.00
2022-10-01T22:10:46.127Z,100.00
2022-10-01T22:13:28.012Z,100.00
2022-10-01T22:16:14.009Z,100.00
2022-10-01T22:19:10.254Z,100.00
2022-10-01T22:21:46.284Z,100.00
2022-10-01T22:24:19.448Z,100.00
2022-10-01T22:26:57.994Z,100.00
2022-10-01T22:29:30.004Z,100.00
2022-10-01T22:32:02.909Z,100.00
2022-10-01T22:34:49.447Z,100.00
2022-10-01T22:37:22.806Z,100.00
2022-10-01T22:40:20.140Z,100.00
2022-10-01T22:43:11.799Z,100.00
2022-10-01T22:45:54.638Z,100.00
2022-10-01T22:48:44.140Z,100.00
2022-10-01T22:51:17.988Z,100.00
2022-10-01T22:54:14.165Z,100.00
2022-10-01T22:56:57.502Z,100.00
2022-10-01T22:59:52.087Z,100.00
2022-10-01T23:02:35.900Z,100.00
2022-10-01T23:05:33.357Z,100.00
2022-10-01T23:08:33.980Z,100.00
2022-10-01T23:11:43.820Z,100.00
2022-10-01T23:14:39.698Z,100.00
2022-10-01T23:17:13.527Z,100.00
2022-10-01T23:20:04.571Z,100.00
2022-10-01T23:23:01.591Z,100.00
2022-10-01T23:26:10.274Z,100.00
2022-10-01T23:28:49.186Z,100.00
2022-10-01T23:31:31.470Z,100.00
2022-10-01T23:34:26.175Z,100.00
2022-10-01T23:37:03.455Z,100.00
2022-10-01T23:39:44.428Z,100.00
2022-10-01T23:42:52.287Z,100.00
2022-10-01T23:45:37.186Z,100.00
2022-10-01T23:48:12.161Z,100.00
2022-10-01T23:50:51.167Z,100.00
2022-10-01T23:53:23.956Z,100.00
2022-10-01T23:56:23.508Z,100.00
2022-10-01T23:59:03.396Z,100.00
